sensor_id;sensor_type;location;lat;lon;timestamp;P1;durP1;ratioP1;P2;durP2;ratioP2
4174;SDS011;2101;48.290;14.382;2023-11-19T00:00:33;43.43;;;6.57;;
4174;SDS011;2101;48.290;14.382;2023-11-19T00:03:00;48.83;;;6.07;;
4174;SDS011;2101;48.290;14.382;2023-11-19T00:05:26;51.13;;;6.70;;
4174;SDS011;2101;48.290;14.382;2023-11-19T00:07:53;48.83;;;6.30;;
4174;SDS011;2101;48.290;14.382;2023-11-19T00:10:19;44.80;;;6.47;;
4174;SDS011;2101;48.290;14.382;2023-11-19T00:12:48;45.87;;;7.13;;
4174;SDS011;2101;48.290;14.382;2023-11-19T00:15:15;52.57;;;6.83;;
4174;SDS011;2101;48.290;14.382;2023-11-19T00:17:44;48.37;;;7.40;;
4174;SDS011;2101;48.290;14.382;2023-11-19T00:20:11;49.30;;;6.60;;
4174;SDS011;2101;48.290;14.382;2023-11-19T00:22:37;51.83;;;7.40;;
4174;SDS011;2101;48.290;14.382;2023-11-19T00:25:03;46.73;;;7.20;;
4174;SDS011;2101;48.290;14.382;2023-11-19T00:27:30;47.17;;;7.30;;
4174;SDS011;2101;48.290;14.382;2023-11-19T00:29:56;47.67;;;6.53;;
4174;SDS011;2101;48.290;14.382;2023-11-19T00:32:23;45.83;;;6.20;;
4174;SDS011;2101;48.290;14.382;2023-11-19T00:34:49;50.10;;;7.90;;
4174;SDS011;2101;48.290;14.382;2023-11-19T00:37:15;47.47;;;6.87;;
4174;SDS011;2101;48.290;14.382;2023-11-19T00:39:41;55.17;;;8.10;;
4174;SDS011;2101;48.290;14.382;2023-11-19T00:42:08;47.13;;;7.77;;
4174;SDS011;2101;48.290;14.382;2023-11-19T00:44:35;55.63;;;7.70;;
4174;SDS011;2101;48.290;14.382;2023-11-19T00:47:01;45.97;;;7.17;;
4174;SDS011;2101;48.290;14.382;2023-11-19T00:49:27;49.60;;;8.07;;
4174;SDS011;2101;48.290;14.382;2023-11-19T00:51:53;48.07;;;6.67;;
4174;SDS011;2101;48.290;14.382;2023-11-19T00:54:20;49.03;;;7.00;;
4174;SDS011;2101;48.290;14.382;2023-11-19T00:56:46;47.77;;;7.70;;
4174;SDS011;2101;48.290;14.382;2023-11-19T00:59:12;48.10;;;7.17;;
4174;SDS011;2101;48.290;14.382;2023-11-19T01:01:39;47.77;;;8.30;;
4174;SDS011;2101;48.290;14.382;2023-11-19T01:04:05;44.57;;;5.87;;
4174;SDS011;2101;48.290;14.382;2023-11-19T01:06:31;44.67;;;6.87;;
4174;SDS011;2101;48.290;14.382;2023-11-19T01:08:58;46.40;;;7.20;;
4174;SDS011;2101;48.290;14.382;2023-11-19T01:11:24;47.00;;;6.30;;
4174;SDS011;2101;48.290;14.382;2023-11-19T01:13:50;51.90;;;6.97;;
4174;SDS011;2101;48.290;14.382;2023-11-19T01:16:17;46.23;;;7.07;;
4174;SDS011;2101;48.290;14.382;2023-11-19T01:18:44;45.97;;;5.80;;
4174;SDS011;2101;48.290;14.382;2023-11-19T01:21:10;49.53;;;7.60;;
4174;SDS011;2101;48.290;14.382;2023-11-19T01:23:36;45.17;;;6.90;;
4174;SDS011;2101;48.290;14.382;2023-11-19T01:26:02;44.40;;;5.90;;
4174;SDS011;2101;48.290;14.382;2023-11-19T01:28:30;41.40;;;5.80;;
4174;SDS011;2101;48.290;14.382;2023-11-19T01:30:56;44.87;;;6.90;;
4174;SDS011;2101;48.290;14.382;2023-11-19T01:33:22;47.67;;;7.07;;
4174;SDS011;2101;48.290;14.382;2023-11-19T01:35:48;41.77;;;5.50;;
4174;SDS011;2101;48.290;14.382;2023-11-19T01:38:14;45.50;;;6.60;;
4174;SDS011;2101;48.290;14.382;2023-11-19T01:40:40;48.57;;;7.60;;
4174;SDS011;2101;48.290;14.382;2023-11-19T01:43:07;43.77;;;6.73;;
4174;SDS011;2101;48.290;14.382;2023-11-19T01:45:36;40.60;;;5.50;;
4174;SDS011;2101;48.290;14.382;2023-11-19T01:48:03;44.50;;;5.90;;
4174;SDS011;2101;48.290;14.382;2023-11-19T01:50:29;42.27;;;6.63;;
4174;SDS011;2101;48.290;14.382;2023-11-19T01:52:56;42.20;;;6.30;;
4174;SDS011;2101;48.290;14.382;2023-11-19T01:55:22;44.50;;;6.90;;
4174;SDS011;2101;48.290;14.382;2023-11-19T01:57:49;45.03;;;6.20;;
4174;SDS011;2101;48.290;14.382;2023-11-19T02:00:16;47.17;;;7.13;;
4174;SDS011;2101;48.290;14.382;2023-11-19T02:02:48;42.40;;;6.40;;
4174;SDS011;2101;48.290;14.382;2023-11-19T02:05:14;42.57;;;6.77;;
4174;SDS011;2101;48.290;14.382;2023-11-19T02:07:41;47.77;;;7.40;;
4174;SDS011;2101;48.290;14.382;2023-11-19T02:10:07;45.53;;;6.47;;
4174;SDS011;2101;48.290;14.382;2023-11-19T02:12:38;42.53;;;6.17;;
4174;SDS011;2101;48.290;14.382;2023-11-19T02:15:08;43.83;;;6.77;;
4174;SDS011;2101;48.290;14.382;2023-11-19T02:17:34;43.20;;;6.50;;
4174;SDS011;2101;48.290;14.382;2023-11-19T02:20:02;45.53;;;7.07;;
4174;SDS011;2101;48.290;14.382;2023-11-19T02:22:31;41.63;;;5.80;;
4174;SDS011;2101;48.290;14.382;2023-11-19T02:24:59;42.47;;;6.10;;
4174;SDS011;2101;48.290;14.382;2023-11-19T02:30:03;41.53;;;6.60;;
4174;SDS011;2101;48.290;14.382;2023-11-19T02:32:33;44.20;;;6.90;;
4174;SDS011;2101;48.290;14.382;2023-11-19T02:35:00;56.07;;;6.63;;
4174;SDS011;2101;48.290;14.382;2023-11-19T02:37:27;48.90;;;7.70;;
4174;SDS011;2101;48.290;14.382;2023-11-19T02:39:53;44.60;;;6.10;;
4174;SDS011;2101;48.290;14.382;2023-11-19T02:42:19;42.93;;;7.00;;
4174;SDS011;2101;48.290;14.382;2023-11-19T02:44:45;43.10;;;6.57;;
4174;SDS011;2101;48.290;14.382;2023-11-19T02:47:13;38.77;;;4.90;;
4174;SDS011;2101;48.290;14.382;2023-11-19T02:49:39;43.93;;;6.70;;
4174;SDS011;2101;48.290;14.382;2023-11-19T02:52:05;45.30;;;7.47;;
4174;SDS011;2101;48.290;14.382;2023-11-19T02:54:32;48.27;;;6.67;;
4174;SDS011;2101;48.290;14.382;2023-11-19T02:57:00;43.23;;;6.33;;
4174;SDS011;2101;48.290;14.382;2023-11-19T02:59:28;47.63;;;6.77;;
4174;SDS011;2101;48.290;14.382;2023-11-19T03:02:03;46.43;;;5.93;;
4174;SDS011;2101;48.290;14.382;2023-11-19T03:04:31;45.60;;;7.17;;
4174;SDS011;2101;48.290;14.382;2023-11-19T03:06:57;46.30;;;5.93;;
4174;SDS011;2101;48.290;14.382;2023-11-19T03:09:23;45.37;;;6.80;;
4174;SDS011;2101;48.290;14.382;2023-11-19T03:11:50;40.80;;;6.30;;
4174;SDS011;2101;48.290;14.382;2023-11-19T03:14:16;45.53;;;6.27;;
4174;SDS011;2101;48.290;14.382;2023-11-19T03:16:44;44.83;;;6.20;;
4174;SDS011;2101;48.290;14.382;2023-11-19T03:19:13;51.83;;;6.30;;
4174;SDS011;2101;48.290;14.382;2023-11-19T03:21:40;48.77;;;6.90;;
4174;SDS011;2101;48.290;14.382;2023-11-19T03:24:06;41.40;;;5.50;;
4174;SDS011;2101;48.290;14.382;2023-11-19T03:26:33;49.83;;;7.33;;
4174;SDS011;2101;48.290;14.382;2023-11-19T03:28:59;48.57;;;7.17;;
4174;SDS011;2101;48.290;14.382;2023-11-19T03:31:26;47.93;;;6.23;;
4174;SDS011;2101;48.290;14.382;2023-11-19T03:33:52;46.57;;;6.87;;
4174;SDS011;2101;48.290;14.382;2023-11-19T03:36:19;45.07;;;6.60;;
4174;SDS011;2101;48.290;14.382;2023-11-19T03:38:45;42.80;;;6.43;;
4174;SDS011;2101;48.290;14.382;2023-11-19T03:41:12;44.77;;;6.10;;
4174;SDS011;2101;48.290;14.382;2023-11-19T03:43:38;45.07;;;6.97;;
4174;SDS011;2101;48.290;14.382;2023-11-19T03:46:05;41.60;;;5.70;;
4174;SDS011;2101;48.290;14.382;2023-11-19T03:48:31;41.83;;;5.80;;
4174;SDS011;2101;48.290;14.382;2023-11-19T03:50:57;42.07;;;5.40;;
4174;SDS011;2101;48.290;14.382;2023-11-19T03:53:23;40.93;;;6.07;;
4174;SDS011;2101;48.290;14.382;2023-11-19T03:55:49;38.70;;;4.77;;
4174;SDS011;2101;48.290;14.382;2023-11-19T03:58:15;43.13;;;6.80;;
4174;SDS011;2101;48.290;14.382;2023-11-19T04:00:41;40.47;;;4.80;;
4174;SDS011;2101;48.290;14.382;2023-11-19T04:03:07;40.73;;;5.63;;
4174;SDS011;2101;48.290;14.382;2023-11-19T04:05:33;47.60;;;5.73;;
4174;SDS011;2101;48.290;14.382;2023-11-19T04:08:00;44.63;;;5.80;;
4174;SDS011;2101;48.290;14.382;2023-11-19T04:10:26;46.67;;;6.43;;
4174;SDS011;2101;48.290;14.382;2023-11-19T04:12:52;42.33;;;6.07;;
4174;SDS011;2101;48.290;14.382;2023-11-19T04:15:18;53.50;;;6.97;;
4174;SDS011;2101;48.290;14.382;2023-11-19T04:17:44;43.00;;;6.23;;
4174;SDS011;2101;48.290;14.382;2023-11-19T04:20:11;43.00;;;6.33;;
4174;SDS011;2101;48.290;14.382;2023-11-19T04:22:38;46.37;;;6.63;;
4174;SDS011;2101;48.290;14.382;2023-11-19T04:25:04;48.63;;;5.90;;
4174;SDS011;2101;48.290;14.382;2023-11-19T04:27:30;40.17;;;4.97;;
4174;SDS011;2101;48.290;14.382;2023-11-19T04:29:56;43.90;;;6.17;;
4174;SDS011;2101;48.290;14.382;2023-11-19T04:32:23;38.20;;;5.37;;
4174;SDS011;2101;48.290;14.382;2023-11-19T04:34:50;41.37;;;5.63;;
4174;SDS011;2101;48.290;14.382;2023-11-19T04:37:16;41.77;;;5.63;;
4174;SDS011;2101;48.290;14.382;2023-11-19T04:39:44;40.23;;;4.40;;
4174;SDS011;2101;48.290;14.382;2023-11-19T04:42:11;36.67;;;4.37;;
4174;SDS011;2101;48.290;14.382;2023-11-19T04:44:37;40.03;;;4.33;;
4174;SDS011;2101;48.290;14.382;2023-11-19T04:47:03;36.37;;;4.20;;
4174;SDS011;2101;48.290;14.382;2023-11-19T04:49:30;36.23;;;4.07;;
4174;SDS011;2101;48.290;14.382;2023-11-19T04:51:56;33.97;;;3.30;;
4174;SDS011;2101;48.290;14.382;2023-11-19T04:54:22;40.47;;;5.10;;
4174;SDS011;2101;48.290;14.382;2023-11-19T04:56:49;43.30;;;4.60;;
4174;SDS011;2101;48.290;14.382;2023-11-19T04:59:16;37.53;;;4.43;;
4174;SDS011;2101;48.290;14.382;2023-11-19T05:01:46;40.67;;;5.27;;
4174;SDS011;2101;48.290;14.382;2023-11-19T05:04:13;37.63;;;4.10;;
4174;SDS011;2101;48.290;14.382;2023-11-19T05:06:39;40.60;;;4.30;;
4174;SDS011;2101;48.290;14.382;2023-11-19T05:09:06;38.63;;;4.50;;
4174;SDS011;2101;48.290;14.382;2023-11-19T05:11:34;38.77;;;4.97;;
4174;SDS011;2101;48.290;14.382;2023-11-19T05:14:04;35.30;;;3.93;;
4174;SDS011;2101;48.290;14.382;2023-11-19T05:16:31;38.33;;;4.20;;
4174;SDS011;2101;48.290;14.382;2023-11-19T05:18:57;35.13;;;3.13;;
4174;SDS011;2101;48.290;14.382;2023-11-19T05:21:23;36.23;;;3.80;;
4174;SDS011;2101;48.290;14.382;2023-11-19T05:23:49;35.20;;;3.50;;
4174;SDS011;2101;48.290;14.382;2023-11-19T05:26:19;37.53;;;4.33;;
4174;SDS011;2101;48.290;14.382;2023-11-19T05:28:45;40.33;;;4.07;;
4174;SDS011;2101;48.290;14.382;2023-11-19T05:31:11;33.47;;;2.93;;
4174;SDS011;2101;48.290;14.382;2023-11-19T05:33:37;36.37;;;2.77;;
4174;SDS011;2101;48.290;14.382;2023-11-19T05:36:04;32.53;;;2.43;;
4174;SDS011;2101;48.290;14.382;2023-11-19T05:38:30;33.30;;;2.60;;
4174;SDS011;2101;48.290;14.382;2023-11-19T05:40:56;32.67;;;2.23;;
4174;SDS011;2101;48.290;14.382;2023-11-19T05:43:22;34.60;;;2.30;;
4174;SDS011;2101;48.290;14.382;2023-11-19T05:45:48;31.07;;;1.87;;
4174;SDS011;2101;48.290;14.382;2023-11-19T05:48:14;32.30;;;2.50;;
4174;SDS011;2101;48.290;14.382;2023-11-19T05:50:41;32.60;;;1.60;;
4174;SDS011;2101;48.290;14.382;2023-11-19T05:53:07;31.67;;;1.97;;
4174;SDS011;2101;48.290;14.382;2023-11-19T05:55:38;32.03;;;1.80;;
4174;SDS011;2101;48.290;14.382;2023-11-19T05:58:19;32.57;;;1.90;;
4174;SDS011;2101;48.290;14.382;2023-11-19T06:00:47;31.63;;;1.77;;
4174;SDS011;2101;48.290;14.382;2023-11-19T06:03:13;30.33;;;1.50;;
4174;SDS011;2101;48.290;14.382;2023-11-19T06:05:39;30.90;;;1.57;;
4174;SDS011;2101;48.290;14.382;2023-11-19T06:08:05;30.90;;;1.87;;
4174;SDS011;2101;48.290;14.382;2023-11-19T06:10:32;30.20;;;1.30;;
4174;SDS011;2101;48.290;14.382;2023-11-19T06:12:58;30.60;;;1.67;;
4174;SDS011;2101;48.290;14.382;2023-11-19T06:15:25;31.13;;;1.90;;
4174;SDS011;2101;48.290;14.382;2023-11-19T06:17:52;29.70;;;1.40;;
4174;SDS011;2101;48.290;14.382;2023-11-19T06:20:18;30.23;;;1.40;;
4174;SDS011;2101;48.290;14.382;2023-11-19T06:22:45;30.07;;;1.40;;
4174;SDS011;2101;48.290;14.382;2023-11-19T06:25:12;30.23;;;1.07;;
4174;SDS011;2101;48.290;14.382;2023-11-19T06:27:40;30.27;;;1.47;;
4174;SDS011;2101;48.290;14.382;2023-11-19T06:30:06;30.37;;;1.60;;
4174;SDS011;2101;48.290;14.382;2023-11-19T06:32:32;30.30;;;1.43;;
4174;SDS011;2101;48.290;14.382;2023-11-19T06:34:59;30.40;;;1.50;;
4174;SDS011;2101;48.290;14.382;2023-11-19T06:37:25;31.80;;;1.70;;
4174;SDS011;2101;48.290;14.382;2023-11-19T06:39:52;31.87;;;1.60;;
4174;SDS011;2101;48.290;14.382;2023-11-19T06:42:18;30.97;;;1.40;;
4174;SDS011;2101;48.290;14.382;2023-11-19T06:44:44;31.03;;;1.50;;
4174;SDS011;2101;48.290;14.382;2023-11-19T06:47:10;31.10;;;1.77;;
4174;SDS011;2101;48.290;14.382;2023-11-19T06:49:36;31.20;;;1.70;;
4174;SDS011;2101;48.290;14.382;2023-11-19T06:52:02;30.80;;;1.83;;
4174;SDS011;2101;48.290;14.382;2023-11-19T06:54:29;32.87;;;1.97;;
4174;SDS011;2101;48.290;14.382;2023-11-19T06:56:56;30.73;;;1.70;;
4174;SDS011;2101;48.290;14.382;2023-11-19T06:59:22;32.23;;;2.10;;
4174;SDS011;2101;48.290;14.382;2023-11-19T07:01:49;30.07;;;1.60;;
4174;SDS011;2101;48.290;14.382;2023-11-19T07:04:15;31.10;;;1.80;;
4174;SDS011;2101;48.290;14.382;2023-11-19T07:06:41;30.63;;;1.63;;
4174;SDS011;2101;48.290;14.382;2023-11-19T07:09:07;31.40;;;1.90;;
4174;SDS011;2101;48.290;14.382;2023-11-19T07:11:37;31.13;;;1.67;;
4174;SDS011;2101;48.290;14.382;2023-11-19T07:14:03;31.10;;;1.90;;
4174;SDS011;2101;48.290;14.382;2023-11-19T07:16:29;32.60;;;2.20;;
4174;SDS011;2101;48.290;14.382;2023-11-19T07:18:56;34.07;;;2.43;;
4174;SDS011;2101;48.290;14.382;2023-11-19T07:21:23;33.73;;;2.70;;
4174;SDS011;2101;48.290;14.382;2023-11-19T07:23:49;37.13;;;2.90;;
4174;SDS011;2101;48.290;14.382;2023-11-19T07:26:16;33.77;;;2.87;;
4174;SDS011;2101;48.290;14.382;2023-11-19T07:28:43;35.40;;;3.70;;
4174;SDS011;2101;48.290;14.382;2023-11-19T07:31:10;33.80;;;2.70;;
4174;SDS011;2101;48.290;14.382;2023-11-19T07:33:36;34.83;;;2.70;;
4174;SDS011;2101;48.290;14.382;2023-11-19T07:36:03;32.80;;;2.60;;
4174;SDS011;2101;48.290;14.382;2023-11-19T07:38:29;35.03;;;2.63;;
4174;SDS011;2101;48.290;14.382;2023-11-19T07:40:55;33.37;;;2.53;;
4174;SDS011;2101;48.290;14.382;2023-11-19T07:43:21;32.40;;;2.53;;
4174;SDS011;2101;48.290;14.382;2023-11-19T07:45:47;32.50;;;2.37;;
4174;SDS011;2101;48.290;14.382;2023-11-19T07:48:13;33.77;;;2.70;;
4174;SDS011;2101;48.290;14.382;2023-11-19T07:50:40;33.37;;;2.97;;
4174;SDS011;2101;48.290;14.382;2023-11-19T07:53:06;34.40;;;3.20;;
4174;SDS011;2101;48.290;14.382;2023-11-19T07:55:33;34.73;;;3.40;;
4174;SDS011;2101;48.290;14.382;2023-11-19T07:57:59;44.20;;;2.90;;
4174;SDS011;2101;48.290;14.382;2023-11-19T08:00:26;37.70;;;3.50;;
4174;SDS011;2101;48.290;14.382;2023-11-19T08:02:52;35.70;;;3.13;;
4174;SDS011;2101;48.290;14.382;2023-11-19T08:05:18;37.83;;;4.43;;
4174;SDS011;2101;48.290;14.382;2023-11-19T08:07:44;36.80;;;4.30;;
4174;SDS011;2101;48.290;14.382;2023-11-19T08:10:10;36.70;;;4.60;;
4174;SDS011;2101;48.290;14.382;2023-11-19T08:12:36;34.10;;;3.67;;
4174;SDS011;2101;48.290;14.382;2023-11-19T08:15:03;36.93;;;4.33;;
4174;SDS011;2101;48.290;14.382;2023-11-19T08:17:30;44.07;;;4.17;;
4174;SDS011;2101;48.290;14.382;2023-11-19T08:19:56;36.33;;;3.73;;
4174;SDS011;2101;48.290;14.382;2023-11-19T08:22:22;39.70;;;3.77;;
4174;SDS011;2101;48.290;14.382;2023-11-19T08:24:48;35.57;;;3.70;;
4174;SDS011;2101;48.290;14.382;2023-11-19T08:27:14;38.60;;;4.20;;
4174;SDS011;2101;48.290;14.382;2023-11-19T08:29:40;35.20;;;3.50;;
4174;SDS011;2101;48.290;14.382;2023-11-19T08:32:06;38.77;;;5.00;;
4174;SDS011;2101;48.290;14.382;2023-11-19T08:34:32;34.97;;;3.70;;
4174;SDS011;2101;48.290;14.382;2023-11-19T08:36:59;34.10;;;3.30;;
4174;SDS011;2101;48.290;14.382;2023-11-19T08:39:25;38.70;;;4.00;;
4174;SDS011;2101;48.290;14.382;2023-11-19T08:41:51;37.33;;;3.50;;
4174;SDS011;2101;48.290;14.382;2023-11-19T08:44:17;34.30;;;3.70;;
4174;SDS011;2101;48.290;14.382;2023-11-19T08:46:48;37.93;;;4.20;;
4174;SDS011;2101;48.290;14.382;2023-11-19T08:49:14;35.73;;;3.50;;
4174;SDS011;2101;48.290;14.382;2023-11-19T08:51:40;34.07;;;3.13;;
4174;SDS011;2101;48.290;14.382;2023-11-19T08:54:07;35.60;;;3.20;;
4174;SDS011;2101;48.290;14.382;2023-11-19T08:56:33;41.93;;;3.53;;
4174;SDS011;2101;48.290;14.382;2023-11-19T08:59:00;33.03;;;2.60;;
4174;SDS011;2101;48.290;14.382;2023-11-19T09:01:26;35.70;;;3.10;;
4174;SDS011;2101;48.290;14.382;2023-11-19T09:03:53;34.23;;;3.00;;
4174;SDS011;2101;48.290;14.382;2023-11-19T09:06:19;34.60;;;2.97;;
4174;SDS011;2101;48.290;14.382;2023-11-19T09:08:45;33.80;;;2.97;;
4174;SDS011;2101;48.290;14.382;2023-11-19T09:11:12;34.43;;;2.97;;
4174;SDS011;2101;48.290;14.382;2023-11-19T09:13:38;44.90;;;3.20;;
4174;SDS011;2101;48.290;14.382;2023-11-19T09:16:04;35.30;;;3.20;;
4174;SDS011;2101;48.290;14.382;2023-11-19T09:18:30;36.53;;;2.70;;
4174;SDS011;2101;48.290;14.382;2023-11-19T09:21:00;34.70;;;2.70;;
4174;SDS011;2101;48.290;14.382;2023-11-19T09:23:27;37.90;;;3.10;;
4174;SDS011;2101;48.290;14.382;2023-11-19T09:25:55;36.80;;;3.10;;
4174;SDS011;2101;48.290;14.382;2023-11-19T09:28:21;40.10;;;3.87;;
4174;SDS011;2101;48.290;14.382;2023-11-19T09:30:47;36.27;;;3.30;;
4174;SDS011;2101;48.290;14.382;2023-11-19T09:33:13;35.90;;;3.30;;
4174;SDS011;2101;48.290;14.382;2023-11-19T09:35:39;35.20;;;3.47;;
4174;SDS011;2101;48.290;14.382;2023-11-19T09:38:05;33.80;;;3.10;;
4174;SDS011;2101;48.290;14.382;2023-11-19T09:40:32;38.20;;;3.40;;
4174;SDS011;2101;48.290;14.382;2023-11-19T09:42:58;36.27;;;4.07;;
4174;SDS011;2101;48.290;14.382;2023-11-19T09:45:26;42.00;;;4.40;;
4174;SDS011;2101;48.290;14.382;2023-11-19T09:47:53;38.90;;;4.30;;
4174;SDS011;2101;48.290;14.382;2023-11-19T09:50:22;46.63;;;4.77;;
4174;SDS011;2101;48.290;14.382;2023-11-19T09:52:49;41.20;;;4.00;;
4174;SDS011;2101;48.290;14.382;2023-11-19T09:55:15;41.27;;;5.00;;
4174;SDS011;2101;48.290;14.382;2023-11-19T09:57:42;41.20;;;4.47;;
4174;SDS011;2101;48.290;14.382;2023-11-19T10:00:09;41.93;;;4.60;;
4174;SDS011;2101;48.290;14.382;2023-11-19T10:02:36;41.07;;;5.87;;
4174;SDS011;2101;48.290;14.382;2023-11-19T10:05:07;38.70;;;4.40;;
4174;SDS011;2101;48.290;14.382;2023-11-19T10:07:33;45.60;;;4.90;;
4174;SDS011;2101;48.290;14.382;2023-11-19T10:10:02;41.90;;;5.17;;
4174;SDS011;2101;48.290;14.382;2023-11-19T10:12:32;47.73;;;5.13;;
4174;SDS011;2101;48.290;14.382;2023-11-19T10:14:58;48.17;;;4.63;;
4174;SDS011;2101;48.290;14.382;2023-11-19T10:17:28;39.70;;;4.03;;
4174;SDS011;2101;48.290;14.382;2023-11-19T10:19:54;38.93;;;4.27;;
4174;SDS011;2101;48.290;14.382;2023-11-19T10:22:22;38.60;;;3.80;;
4174;SDS011;2101;48.290;14.382;2023-11-19T10:24:48;35.20;;;2.97;;
4174;SDS011;2101;48.290;14.382;2023-11-19T10:27:14;36.60;;;3.87;;
4174;SDS011;2101;48.290;14.382;2023-11-19T10:29:40;38.97;;;3.90;;
4174;SDS011;2101;48.290;14.382;2023-11-19T10:32:09;38.77;;;4.40;;
4174;SDS011;2101;48.290;14.382;2023-11-19T10:34:35;41.90;;;6.83;;
4174;SDS011;2101;48.290;14.382;2023-11-19T10:37:04;37.40;;;4.00;;
4174;SDS011;2101;48.290;14.382;2023-11-19T10:42:16;38.57;;;3.83;;
4174;SDS011;2101;48.290;14.382;2023-11-19T10:44:42;40.50;;;3.73;;
4174;SDS011;2101;48.290;14.382;2023-11-19T10:47:08;35.07;;;3.70;;
4174;SDS011;2101;48.290;14.382;2023-11-19T10:49:36;36.90;;;3.90;;
4174;SDS011;2101;48.290;14.382;2023-11-19T10:52:03;39.27;;;4.30;;
4174;SDS011;2101;48.290;14.382;2023-11-19T10:54:32;40.13;;;4.27;;
4174;SDS011;2101;48.290;14.382;2023-11-19T10:57:00;37.37;;;3.97;;
4174;SDS011;2101;48.290;14.382;2023-11-19T10:59:28;56.47;;;4.77;;
4174;SDS011;2101;48.290;14.382;2023-11-19T11:01:56;47.17;;;3.90;;
4174;SDS011;2101;48.290;14.382;2023-11-19T11:04:23;39.60;;;4.00;;
4174;SDS011;2101;48.290;14.382;2023-11-19T11:06:54;37.07;;;4.37;;
4174;SDS011;2101;48.290;14.382;2023-11-19T11:09:23;47.53;;;3.80;;
4174;SDS011;2101;48.290;14.382;2023-11-19T11:11:51;41.10;;;4.27;;
4174;SDS011;2101;48.290;14.382;2023-11-19T11:14:18;50.73;;;4.73;;
4174;SDS011;2101;48.290;14.382;2023-11-19T11:16:46;110.40;;;5.53;;
4174;SDS011;2101;48.290;14.382;2023-11-19T11:19:15;135.20;;;7.07;;
4174;SDS011;2101;48.290;14.382;2023-11-19T11:21:44;43.40;;;5.20;;
4174;SDS011;2101;48.290;14.382;2023-11-19T11:35:27;61.70;;;4.80;;
4174;SDS011;2101;48.290;14.382;2023-11-19T11:37:38;102.30;;;6.90;;
4174;SDS011;2101;48.290;14.382;2023-11-19T11:40:05;273.10;;;12.33;;
4174;SDS011;2101;48.290;14.382;2023-11-19T11:42:38;350.57;;;16.03;;
4174;SDS011;2101;48.290;14.382;2023-11-19T11:50:11;136.17;;;7.70;;
4174;SDS011;2101;48.290;14.382;2023-11-19T11:55:27;241.33;;;15.33;;
4174;SDS011;2101;48.290;14.382;2023-11-19T11:57:57;82.90;;;8.57;;
4174;SDS011;2101;48.290;14.382;2023-11-19T12:00:27;46.77;;;7.13;;
4174;SDS011;2101;48.290;14.382;2023-11-19T12:02:56;46.90;;;6.93;;
4174;SDS011;2101;48.290;14.382;2023-11-19T12:05:23;162.73;;;10.87;;
4174;SDS011;2101;48.290;14.382;2023-11-19T12:07:55;82.33;;;9.03;;
4174;SDS011;2101;48.290;14.382;2023-11-19T12:10:23;105.57;;;12.23;;
4174;SDS011;2101;48.290;14.382;2023-11-19T12:12:52;51.30;;;6.80;;
4174;SDS011;2101;48.290;14.382;2023-11-19T12:15:18;42.40;;;5.63;;
4174;SDS011;2101;48.290;14.382;2023-11-19T12:17:50;47.73;;;7.03;;
4174;SDS011;2101;48.290;14.382;2023-11-19T12:20:16;43.53;;;6.00;;
4174;SDS011;2101;48.290;14.382;2023-11-19T12:22:44;46.43;;;6.67;;
4174;SDS011;2101;48.290;14.382;2023-11-19T12:25:11;42.67;;;6.47;;
4174;SDS011;2101;48.290;14.382;2023-11-19T12:27:43;50.10;;;7.00;;
4174;SDS011;2101;48.290;14.382;2023-11-19T12:30:09;49.37;;;7.20;;
4174;SDS011;2101;48.290;14.382;2023-11-19T12:32:39;66.33;;;9.07;;
4174;SDS011;2101;48.290;14.382;2023-11-19T12:35:05;66.47;;;10.83;;
4174;SDS011;2101;48.290;14.382;2023-11-19T12:37:32;72.97;;;11.57;;
4174;SDS011;2101;48.290;14.382;2023-11-19T12:39:58;69.07;;;10.60;;
4174;SDS011;2101;48.290;14.382;2023-11-19T12:42:37;77.47;;;11.10;;
4174;SDS011;2101;48.290;14.382;2023-11-19T12:45:04;57.80;;;9.67;;
4174;SDS011;2101;48.290;14.382;2023-11-19T12:47:30;63.50;;;9.53;;
4174;SDS011;2101;48.290;14.382;2023-11-19T12:49:56;62.87;;;10.10;;
4174;SDS011;2101;48.290;14.382;2023-11-19T12:52:23;77.37;;;9.53;;
4174;SDS011;2101;48.290;14.382;2023-11-19T12:54:49;65.40;;;9.40;;
4174;SDS011;2101;48.290;14.382;2023-11-19T12:57:16;56.83;;;10.37;;
4174;SDS011;2101;48.290;14.382;2023-11-19T12:59:53;55.90;;;9.53;;
4174;SDS011;2101;48.290;14.382;2023-11-19T13:02:20;67.37;;;11.47;;
4174;SDS011;2101;48.290;14.382;2023-11-19T13:04:47;65.03;;;10.83;;
4174;SDS011;2101;48.290;14.382;2023-11-19T13:07:13;69.27;;;12.10;;
4174;SDS011;2101;48.290;14.382;2023-11-19T13:09:39;62.83;;;11.23;;
4174;SDS011;2101;48.290;14.382;2023-11-19T13:12:14;58.33;;;9.00;;
4174;SDS011;2101;48.290;14.382;2023-11-19T13:14:41;65.37;;;9.00;;
4174;SDS011;2101;48.290;14.382;2023-11-19T13:17:12;62.50;;;9.23;;
4174;SDS011;2101;48.290;14.382;2023-11-19T13:19:39;74.93;;;15.03;;
4174;SDS011;2101;48.290;14.382;2023-11-19T13:22:05;58.83;;;9.13;;
4174;SDS011;2101;48.290;14.382;2023-11-19T13:24:31;58.53;;;9.03;;
4174;SDS011;2101;48.290;14.382;2023-11-19T13:26:57;49.90;;;8.63;;
4174;SDS011;2101;48.290;14.382;2023-11-19T13:29:23;59.13;;;10.00;;
4174;SDS011;2101;48.290;14.382;2023-11-19T13:31:50;72.67;;;9.67;;
4174;SDS011;2101;48.290;14.382;2023-11-19T13:34:16;63.53;;;10.33;;
4174;SDS011;2101;48.290;14.382;2023-11-19T13:36:42;68.67;;;11.77;;
4174;SDS011;2101;48.290;14.382;2023-11-19T13:39:08;72.47;;;11.13;;
4174;SDS011;2101;48.290;14.382;2023-11-19T13:41:35;60.93;;;9.00;;
4174;SDS011;2101;48.290;14.382;2023-11-19T13:44:01;64.40;;;11.63;;
4174;SDS011;2101;48.290;14.382;2023-11-19T13:46:27;64.17;;;10.80;;
4174;SDS011;2101;48.290;14.382;2023-11-19T13:48:54;54.57;;;9.40;;
4174;SDS011;2101;48.290;14.382;2023-11-19T13:51:20;65.43;;;10.57;;
4174;SDS011;2101;48.290;14.382;2023-11-19T13:53:46;53.77;;;9.53;;
4174;SDS011;2101;48.290;14.382;2023-11-19T13:56:12;64.30;;;9.77;;
4174;SDS011;2101;48.290;14.382;2023-11-19T13:58:38;72.47;;;10.83;;
4174;SDS011;2101;48.290;14.382;2023-11-19T14:01:05;51.90;;;9.00;;
4174;SDS011;2101;48.290;14.382;2023-11-19T14:03:32;57.40;;;9.30;;
4174;SDS011;2101;48.290;14.382;2023-11-19T14:05:58;164.53;;;16.10;;
4174;SDS011;2101;48.290;14.382;2023-11-19T14:08:25;85.03;;;15.80;;
4174;SDS011;2101;48.290;14.382;2023-11-19T14:10:52;71.30;;;15.47;;
4174;SDS011;2101;48.290;14.382;2023-11-19T14:13:21;60.50;;;12.73;;
4174;SDS011;2101;48.290;14.382;2023-11-19T14:15:48;54.63;;;9.07;;
4174;SDS011;2101;48.290;14.382;2023-11-19T14:18:14;102.97;;;10.80;;
4174;SDS011;2101;48.290;14.382;2023-11-19T14:20:40;203.40;;;17.40;;
4174;SDS011;2101;48.290;14.382;2023-11-19T14:23:09;108.83;;;8.57;;
4174;SDS011;2101;48.290;14.382;2023-11-19T14:25:35;623.33;;;28.93;;
4174;SDS011;2101;48.290;14.382;2023-11-19T14:28:01;421.33;;;18.93;;
4174;SDS011;2101;48.290;14.382;2023-11-19T14:30:27;337.47;;;18.90;;
4174;SDS011;2101;48.290;14.382;2023-11-19T14:32:53;590.97;;;32.53;;
4174;SDS011;2101;48.290;14.382;2023-11-19T14:35:19;660.80;;;36.37;;
4174;SDS011;2101;48.290;14.382;2023-11-19T14:37:45;345.60;;;21.30;;
4174;SDS011;2101;48.290;14.382;2023-11-19T14:40:12;245.50;;;20.13;;
4174;SDS011;2101;48.290;14.382;2023-11-19T14:42:38;438.17;;;23.43;;
4174;SDS011;2101;48.290;14.382;2023-11-19T14:45:04;381.50;;;25.00;;
4174;SDS011;2101;48.290;14.382;2023-11-19T14:47:30;577.90;;;31.00;;
4174;SDS011;2101;48.290;14.382;2023-11-19T14:49:57;494.73;;;28.80;;
4174;SDS011;2101;48.290;14.382;2023-11-19T14:52:23;333.90;;;19.33;;
4174;SDS011;2101;48.290;14.382;2023-11-19T14:54:49;203.33;;;13.47;;
4174;SDS011;2101;48.290;14.382;2023-11-19T14:57:16;375.07;;;19.30;;
4174;SDS011;2101;48.290;14.382;2023-11-19T14:59:42;621.63;;;33.90;;
4174;SDS011;2101;48.290;14.382;2023-11-19T15:02:08;530.37;;;31.27;;
4174;SDS011;2101;48.290;14.382;2023-11-19T15:04:35;505.57;;;27.30;;
4174;SDS011;2101;48.290;14.382;2023-11-19T15:07:02;835.10;;;47.37;;